Time;durP1;ratioP1;P1;durP2;ratioP2;P2;SDS_P1;SDS_P2;PMS_P1;PMS_P2;Temp;Humidity;BMP_temperature;BMP_pressure;BME280_temperature;BME280_humidity;BME280_pressure;Samples;Min_cycle;Max_cycle;Signal;HPM_P1;HPM_P2
2023/05/12 00:00:56;;;;;;;2.75;1.98;;;18.20;57.80;;;;;;5108034;27;45390;-67
2023/05/12 00:03:22;;;;;;;1.73;1.63;;;18.10;57.70;;;;;;5108249;27;45445;-67
2023/05/12 00:05:49;;;;;;;1.90;1.80;;;18.10;57.70;;;;;;5108134;27;45378;-67
2023/05/12 00:08:16;;;;;;;4.20;2.35;;;18.10;57.70;;;;;;5107817;27;46699;-67
2023/05/12 00:10:43;;;;;;;2.20;2.00;;;18.10;57.80;;;;;;5108097;27;45298;-68
2023/05/12 00:13:11;;;;;;;2.85;1.90;;;18.10;57.80;;;;;;5108148;27;45231;-68
2023/05/12 00:15:38;;;;;;;1.85;1.70;;;18.10;58.40;;;;;;5107964;27;45279;-67
2023/05/12 00:18:04;;;;;;;2.55;2.30;;;18.10;57.80;;;;;;5107910;27;46813;-67
2023/05/12 00:20:31;;;;;;;1.92;1.77;;;18.10;57.90;;;;;;5107683;27;45259;-67
2023/05/12 00:22:58;;;;;;;2.33;1.90;;;18.00;57.80;;;;;;5107932;27;45267;-67
2023/05/12 00:25:25;;;;;;;2.00;1.80;;;18.10;57.90;;;;;;5107868;27;45404;-67
2023/05/12 00:27:51;;;;;;;2.63;1.88;;;18.00;57.90;;;;;;5107603;27;46364;-68
2023/05/12 00:30:20;;;;;;;1.90;1.67;;;18.00;57.90;;;;;;5107568;27;45327;-67
2023/05/12 00:32:47;;;;;;;2.50;1.75;;;18.00;57.90;;;;;;5107849;27;45354;-67
2023/05/12 00:35:14;;;;;;;1.65;1.55;;;18.00;57.90;;;;;;5107965;27;45387;-67
2023/05/12 00:37:41;;;;;;;2.53;1.90;;;18.00;57.90;;;;;;5107531;27;45467;-67
2023/05/12 00:40:09;;;;;;;2.35;2.00;;;18.00;57.90;;;;;;5107742;27;45476;-67
2023/05/12 00:42:36;;;;;;;1.92;1.77;;;18.00;57.90;;;;;;5107887;27;45294;-68
2023/05/12 00:45:03;;;;;;;1.60;1.50;;;18.00;57.90;;;;;;5107721;27;45405;-67
2023/05/12 00:47:31;;;;;;;2.58;1.75;;;18.00;57.90;;;;;;5106998;27;46424;-68
2023/05/12 00:49:58;;;;;;;1.60;1.50;;;18.00;57.90;;;;;;5107695;27;45396;-67
2023/05/12 00:52:25;;;;;;;2.55;1.95;;;18.00;57.90;;;;;;5107510;27;45350;-67
2023/05/12 00:54:52;;;;;;;2.08;1.77;;;18.00;57.90;;;;;;5107669;27;45241;-67
2023/05/12 00:57:19;;;;;;;2.47;1.70;;;18.00;57.80;;;;;;5107160;27;46481;-68
2023/05/12 00:59:46;;;;;;;2.00;1.70;;;18.00;57.90;;;;;;5107163;27;45245;-68
2023/05/12 01:02:12;;;;;;;1.70;1.60;;;18.00;57.90;;;;;;5107428;27;45251;-67
2023/05/12 01:04:40;;;;;;;2.15;1.60;;;18.00;57.90;;;;;;5107311;27;45248;-67
2023/05/12 01:07:10;;;;;;;2.55;1.63;;;18.00;57.90;;;;;;5107013;27;46374;-67
2023/05/12 01:09:36;;;;;;;2.60;1.73;;;18.00;57.90;;;;;;5106089;27;45350;-67
2023/05/12 01:12:04;;;;;;;1.80;1.70;;;18.00;58.00;;;;;;5107204;27;45220;-67
2023/05/12 01:14:30;;;;;;;1.52;1.33;;;18.00;58.00;;;;;;5107172;27;45423;-67
2023/05/12 01:16:59;;;;;;;2.20;1.60;;;18.00;57.90;;;;;;5106976;27;46824;-67
2023/05/12 01:19:33;;;;;;;1.90;1.80;;;17.90;57.90;;;;;;5106883;27;45268;-68
2023/05/12 01:22:01;;;;;;;1.60;1.50;;;17.90;57.90;;;;;;5106969;27;45254;-67
2023/05/12 01:24:29;;;;;;;2.17;1.80;;;17.90;58.00;;;;;;5107147;27;45426;-68
2023/05/12 01:26:57;;;;;;;1.77;1.65;;;17.90;58.00;;;;;;5106792;27;46413;-67
2023/05/12 01:29:24;;;;;;;1.90;1.70;;;17.90;58.00;;;;;;5106792;27;45197;-67
2023/05/12 01:31:50;;;;;;;1.95;1.55;;;17.90;58.00;;;;;;5106777;27;45312;-67
2023/05/12 01:34:18;;;;;;;1.40;1.30;;;17.90;58.00;;;;;;5106846;27;45426;-67
2023/05/12 01:36:45;;;;;;;1.60;1.50;;;17.90;58.00;;;;;;5106459;27;46679;-67
2023/05/12 01:39:11;;;;;;;1.80;1.70;;;17.90;57.90;;;;;;5106627;27;45406;-67
2023/05/12 01:41:38;;;;;;;1.75;1.52;;;17.90;58.00;;;;;;5106681;27;45261;-68
2023/05/12 01:44:06;;;;;;;1.52;1.42;;;17.90;57.90;;;;;;5106869;27;45340;-67
2023/05/12 01:46:33;;;;;;;1.75;1.60;;;17.90;57.90;;;;;;5106203;27;45482;-67
2023/05/12 01:49:00;;;;;;;1.60;1.50;;;17.90;58.00;;;;;;5106609;27;45343;-67
2023/05/12 01:51:27;;;;;;;1.75;1.65;;;17.90;58.00;;;;;;5106457;27;45264;-67
2023/05/12 01:53:54;;;;;;;1.85;1.40;;;17.90;58.00;;;;;;5106743;27;45184;-67
2023/05/12 01:56:20;;;;;;;1.98;1.58;;;17.90;57.90;;;;;;5106115;27;46547;-67
2023/05/12 01:58:47;;;;;;;1.67;1.40;;;17.90;57.90;;;;;;5106302;27;45271;-67
2023/05/12 02:01:15;;;;;;;2.03;1.60;;;17.90;58.00;;;;;;5106484;27;45390;-68
2023/05/12 02:03:42;;;;;;;1.63;1.52;;;17.90;58.00;;;;;;5106680;27;45404;-67
2023/05/12 02:06:09;;;;;;;1.60;1.50;;;17.90;58.00;;;;;;5105976;27;45469;-67
2023/05/12 02:08:36;;;;;;;1.63;1.50;;;17.80;58.00;;;;;;5106063;27;45315;-68
2023/05/12 02:11:06;;;;;;;1.55;1.45;;;17.90;58.10;;;;;;5106322;27;45326;-67
2023/05/12 02:13:33;;;;;;;1.48;1.38;;;17.90;58.10;;;;;;5106617;27;45367;-67
2023/05/12 02:15:59;;;;;;;1.88;1.40;;;17.90;58.00;;;;;;5105904;27;45474;-67
2023/05/12 02:18:28;;;;;;;1.52;1.42;;;17.80;58.00;;;;;;5106022;27;45336;-67
2023/05/12 02:20:55;;;;;;;1.42;1.33;;;17.90;58.00;;;;;;5107057;27;45361;-67
2023/05/12 02:23:21;;;;;;;1.58;1.48;;;17.80;58.00;;;;;;5110009;27;45418;-67
2023/05/12 02:25:48;;;;;;;1.83;1.38;;;17.90;58.10;;;;;;5109466;27;45475;-68
2023/05/12 02:28:15;;;;;;;1.50;1.40;;;17.80;57.90;;;;;;5109661;27;45272;-67
2023/05/12 02:30:45;;;;;;;1.50;1.40;;;17.80;58.00;;;;;;5109631;27;45264;-67
2023/05/12 02:33:12;;;;;;;1.75;1.50;;;17.80;58.00;;;;;;5109945;27;45322;-67
2023/05/12 02:35:40;;;;;;;1.77;1.52;;;17.80;58.00;;;;;;5109368;27;46417;-67
2023/05/12 02:38:06;;;;;;;1.40;1.30;;;17.80;58.00;;;;;;5109454;27;45229;-67
2023/05/12 02:40:33;;;;;;;1.48;1.30;;;17.80;58.00;;;;;;5109604;27;45330;-67
2023/05/12 02:43:00;;;;;;;2.20;1.50;;;17.80;58.00;;;;;;5109606;27;45496;-67
2023/05/12 02:45:27;;;;;;;1.50;1.40;;;17.80;58.10;;;;;;5109205;27;47349;-67
2023/05/12 02:47:54;;;;;;;1.30;1.20;;;17.80;58.00;;;;;;5108998;27;45280;-67
2023/05/12 02:50:21;;;;;;;1.50;1.40;;;17.80;58.00;;;;;;5109437;27;45269;-67
2023/05/12 02:52:49;;;;;;;1.17;1.13;;;17.80;58.10;;;;;;5109570;27;45493;-67
2023/05/12 02:55:16;;;;;;;1.20;1.10;;;17.80;58.00;;;;;;5109047;27;45361;-67
2023/05/12 02:57:43;;;;;;;1.70;1.60;;;17.80;58.00;;;;;;5109148;27;45275;-67
2023/05/12 03:00:11;;;;;;;1.45;1.35;;;17.70;58.00;;;;;;5109228;27;45182;-67
2023/05/12 03:02:38;;;;;;;2.17;1.35;;;17.80;58.10;;;;;;5109340;27;45376;-67
2023/05/12 03:05:06;;;;;;;2.00;1.30;;;17.80;58.10;;;;;;5108893;27;46413;-67
2023/05/12 03:07:33;;;;;;;1.35;1.25;;;17.70;58.10;;;;;;5109003;27;45295;-68
2023/05/12 03:10:01;;;;;;;1.40;1.23;;;17.80;58.10;;;;;;5109166;27;45234;-68
2023/05/12 03:12:28;;;;;;;2.33;1.27;;;17.70;58.10;;;;;;5109632;27;45380;-67
2023/05/12 03:14:55;;;;;;;2.67;1.23;;;17.70;58.20;;;;;;5108696;27;45612;-67
2023/05/12 03:17:22;;;;;;;1.20;1.10;;;17.70;58.10;;;;;;5108921;27;45338;-67
2023/05/12 03:19:49;;;;;;;2.33;1.38;;;17.70;58.10;;;;;;5109078;27;45306;-67
2023/05/12 03:22:15;;;;;;;1.60;1.27;;;17.70;58.10;;;;;;5109091;27;45257;-67
2023/05/12 03:24:42;;;;;;;1.55;1.45;;;17.70;58.10;;;;;;5108746;27;46739;-68
2023/05/12 03:27:11;;;;;;;1.65;1.20;;;17.70;58.10;;;;;;5108487;27;45378;-68
2023/05/12 03:29:38;;;;;;;2.00;1.17;;;17.70;58.10;;;;;;5108815;27;45332;-68
2023/05/12 03:32:05;;;;;;;2.00;1.45;;;17.70;58.10;;;;;;5108332;27;45335;-67
2023/05/12 03:34:32;;;;;;;1.20;1.20;;;17.70;58.10;;;;;;5108248;27;46857;-68
2023/05/12 03:36:59;;;;;;;1.42;1.20;;;17.70;58.20;;;;;;5108726;27;45387;-67
2023/05/12 03:39:26;;;;;;;1.40;1.30;;;17.70;58.10;;;;;;5108679;27;45544;-67
2023/05/12 03:41:52;;;;;;;1.60;1.15;;;17.70;58.10;;;;;;5108660;27;45331;-67
2023/05/12 03:44:21;;;;;;;1.30;1.10;;;17.70;58.20;;;;;;5108203;27;46388;-68
2023/05/12 03:46:47;;;;;;;1.48;1.20;;;17.70;58.20;;;;;;5108322;27;45412;-68
2023/05/12 03:49:14;;;;;;;1.27;1.17;;;17.70;58.10;;;;;;5108466;27;45373;-67
2023/05/12 03:51:41;;;;;;;1.45;1.15;;;17.70;58.10;;;;;;5108574;27;45514;-68
2023/05/12 03:54:08;;;;;;;1.20;1.10;;;17.70;58.10;;;;;;5108196;27;46431;-68
2023/05/12 03:56:35;;;;;;;1.65;1.17;;;17.70;58.10;;;;;;5108143;27;45264;-67
2023/05/12 03:59:01;;;;;;;1.45;1.35;;;17.70;58.10;;;;;;5108410;27;45195;-67
2023/05/12 04:01:30;;;;;;;1.50;1.40;;;17.60;58.10;;;;;;5108367;27;45402;-67
2023/05/12 04:03:57;;;;;;;1.42;1.10;;;17.60;58.10;;;;;;5108143;27;46437;-67
2023/05/12 04:06:24;;;;;;;1.65;1.20;;;17.70;58.10;;;;;;5107973;27;45263;-67
2023/05/12 04:08:51;;;;;;;1.50;1.25;;;17.60;58.10;;;;;;5108160;27;45272;-67
2023/05/12 04:11:17;;;;;;;1.30;1.20;;;17.60;58.10;;;;;;5108262;27;45308;-67
2023/05/12 04:13:44;;;;;;;0.95;0.93;;;17.70;58.10;;;;;;5107752;27;46699;-67
2023/05/12 04:16:11;;;;;;;1.50;1.27;;;17.60;58.10;;;;;;5108006;27;45382;-67
2023/05/12 04:18:39;;;;;;;1.23;1.15;;;17.60;58.10;;;;;;5107994;27;45308;-67
2023/05/12 04:21:06;;;;;;;1.23;1.10;;;17.60;58.10;;;;;;5108105;27;45481;-67
2023/05/12 04:23:33;;;;;;;1.67;1.23;;;17.60;58.10;;;;;;5107720;27;46707;-67
2023/05/12 04:26:00;;;;;;;1.20;1.10;;;17.60;58.10;;;;;;5107917;27;45358;-67
2023/05/12 04:28:26;;;;;;;1.15;1.05;;;17.60;58.10;;;;;;5107729;27;45391;-67
2023/05/12 04:30:53;;;;;;;1.67;1.10;;;17.60;58.20;;;;;;5107882;27;45330;-67
2023/05/12 04:33:20;;;;;;;2.85;1.13;;;17.60;58.10;;;;;;5107470;27;46659;-67
2023/05/12 04:35:48;;;;;;;1.42;1.33;;;17.60;58.20;;;;;;5107407;27;45253;-67
2023/05/12 04:38:15;;;;;;;1.15;1.00;;;17.60;58.20;;;;;;5105041;27;45425;-67
2023/05/12 04:40:42;;;;;;;2.05;1.20;;;17.60;58.10;;;;;;5107696;27;45515;-68
2023/05/12 04:43:09;;;;;;;1.48;1.13;;;17.60;58.20;;;;;;5107248;27;46376;-68
2023/05/12 04:45:35;;;;;;;1.20;1.10;;;17.60;58.20;;;;;;5107359;27;45259;-68
2023/05/12 04:48:02;;;;;;;1.20;1.10;;;17.60;58.20;;;;;;5107583;27;45365;-67
2023/05/12 04:50:29;;;;;;;2.10;1.45;;;17.60;58.20;;;;;;5107713;27;45368;-67
2023/05/12 04:52:57;;;;;;;1.08;0.95;;;17.60;58.20;;;;;;5107260;27;46405;-68
2023/05/12 04:55:24;;;;;;;0.98;0.98;;;17.60;58.20;;;;;;5107573;27;45329;-67
2023/05/12 04:57:51;;;;;;;1.20;1.10;;;17.60;58.20;;;;;;5107446;27;45173;-68
2023/05/12 05:00:18;;;;;;;1.45;1.00;;;17.60;58.20;;;;;;5107431;27;45248;-68
2023/05/12 05:02:45;;;;;;;1.15;1.10;;;17.60;58.20;;;;;;5107022;27;45477;-68
2023/05/12 05:05:12;;;;;;;1.52;1.38;;;17.60;58.20;;;;;;5107203;27;45366;-68
2023/05/12 05:07:38;;;;;;;1.10;1.10;;;17.50;58.20;;;;;;5107161;27;45373;-67
2023/05/12 05:10:08;;;;;;;0.90;0.90;;;17.60;58.20;;;;;;5107475;27;45422;-67
2023/05/12 05:12:35;;;;;;;1.20;1.08;;;17.50;58.10;;;;;;5106996;27;46616;-67
2023/05/12 05:15:02;;;;;;;1.30;1.20;;;17.60;58.20;;;;;;5107084;27;45393;-68
2023/05/12 05:17:28;;;;;;;1.40;1.30;;;17.50;58.10;;;;;;5107118;27;45377;-69
2023/05/12 05:19:55;;;;;;;2.58;1.00;;;17.50;58.20;;;;;;5107181;27;45291;-67
2023/05/12 05:22:22;;;;;;;1.50;1.40;;;17.60;58.20;;;;;;5106612;27;46725;-67
2023/05/12 05:24:49;;;;;;;1.27;1.20;;;17.50;58.10;;;;;;5106710;27;45327;-67
2023/05/12 05:27:17;;;;;;;1.30;1.00;;;17.50;58.10;;;;;;5106878;27;45377;-67
2023/05/12 05:29:44;;;;;;;1.30;1.20;;;17.50;58.20;;;;;;5107072;27;45481;-68
2023/05/12 05:32:11;;;;;;;0.98;0.90;;;17.50;58.10;;;;;;5106631;27;46312;-67
2023/05/12 05:34:37;;;;;;;1.23;1.10;;;17.50;58.10;;;;;;5106635;27;45276;-67
2023/05/12 05:37:05;;;;;;;1.20;1.08;;;17.60;58.20;;;;;;5106763;27;45324;-67
2023/05/12 05:39:31;;;;;;;1.60;1.13;;;17.50;58.10;;;;;;5106820;27;45417;-68
2023/05/12 05:41:58;;;;;;;1.08;0.93;;;17.60;58.20;;;;;;5106447;27;45346;-67
2023/05/12 05:44:26;;;;;;;1.35;1.20;;;17.50;58.10;;;;;;5106465;27;45338;-67
2023/05/12 05:46:53;;;;;;;1.20;1.10;;;17.50;58.10;;;;;;5106479;27;45281;-68
2023/05/12 05:49:20;;;;;;;2.03;1.02;;;17.50;58.10;;;;;;5106715;27;45383;-67
2023/05/12 05:51:47;;;;;;;1.20;1.10;;;17.50;58.20;;;;;;5106336;27;45379;-68
2023/05/12 05:54:14;;;;;;;1.05;1.00;;;17.50;58.70;;;;;;5106252;27;45349;-68
2023/05/12 05:56:40;;;;;;;1.27;1.17;;;17.50;58.20;;;;;;5105792;27;45262;-67
2023/05/12 05:59:08;;;;;;;1.02;1.00;;;17.50;58.10;;;;;;5106744;27;45204;-68
2023/05/12 06:01:36;;;;;;;3.08;1.20;;;17.60;58.20;;;;;;5106280;27;45451;-67
2023/05/12 06:04:03;;;;;;;1.13;1.02;;;17.50;58.10;;;;;;5106169;27;45336;-67
2023/05/12 06:06:30;;;;;;;1.05;0.95;;;17.50;58.70;;;;;;5106344;27;45292;-67
2023/05/12 06:08:57;;;;;;;1.23;1.13;;;17.50;58.10;;;;;;5106793;27;45191;-67
2023/05/12 06:11:24;;;;;;;1.20;1.10;;;17.60;58.10;;;;;;5106035;27;45247;-67
2023/05/12 06:13:51;;;;;;;0.95;0.90;;;17.50;58.10;;;;;;5106145;27;45522;-67
2023/05/12 06:16:18;;;;;;;1.23;1.13;;;17.50;58.10;;;;;;5106214;27;45296;-67
2023/05/12 06:18:46;;;;;;;1.35;1.25;;;17.50;58.10;;;;;;5106618;27;45379;-67
2023/05/12 06:21:13;;;;;;;1.30;1.00;;;17.50;58.10;;;;;;5106049;27;47285;-66
2023/05/12 06:23:40;;;;;;;1.17;1.08;;;17.60;58.10;;;;;;5105960;27;45408;-67
2023/05/12 06:26:08;;;;;;;0.90;0.90;;;17.50;58.00;;;;;;5105931;27;45409;-67
2023/05/12 06:28:35;;;;;;;1.23;1.20;;;17.60;58.00;;;;;;5106448;27;45312;-67
2023/05/12 06:31:01;;;;;;;0.77;0.77;;;17.60;58.00;;;;;;5105694;27;48312;-67
2023/05/12 06:33:28;;;;;;;1.08;1.08;;;17.60;58.00;;;;;;5106036;27;45246;-67
2023/05/12 06:35:57;;;;;;;1.38;1.27;;;17.60;58.10;;;;;;5105850;27;45395;-67
2023/05/12 06:38:23;;;;;;;1.23;1.10;;;17.60;58.00;;;;;;5106228;27;45597;-67
2023/05/12 06:40:50;;;;;;;1.30;1.20;;;17.60;57.90;;;;;;5105460;27;46410;-67
2023/05/12 06:43:17;;;;;;;1.13;1.05;;;17.60;57.90;;;;;;5105555;27;45134;-67
2023/05/12 06:45:44;;;;;;;0.77;0.77;;;17.60;57.90;;;;;;5105526;27;45184;-67
2023/05/12 06:48:11;;;;;;;1.20;1.08;;;17.70;57.90;;;;;;5105505;27;45386;-67
2023/05/12 06:50:38;;;;;;;1.13;1.02;;;17.70;57.80;;;;;;5105493;27;45291;-67
2023/05/12 06:53:06;;;;;;;1.10;1.10;;;17.70;57.80;;;;;;5105425;27;45356;-67
2023/05/12 06:55:33;;;;;;;1.30;1.02;;;17.70;57.80;;;;;;5105745;27;45328;-67
2023/05/12 06:58:00;;;;;;;1.00;1.00;;;17.70;57.80;;;;;;5105827;27;45395;-67
2023/05/12 07:00:27;;;;;;;0.73;0.73;;;17.70;57.70;;;;;;5105506;27;45310;-67
2023/05/12 07:02:54;;;;;;;1.00;0.90;;;17.70;57.70;;;;;;5105212;27;45385;-67
2023/05/12 07:05:20;;;;;;;0.93;0.93;;;17.70;57.60;;;;;;5105303;27;45294;-67
2023/05/12 07:07:47;;;;;;;1.02;1.00;;;17.70;57.60;;;;;;5106369;27;45179;-66
2023/05/12 07:10:15;;;;;;;1.35;1.05;;;17.70;57.60;;;;;;5108613;27;46384;-67
2023/05/12 07:12:42;;;;;;;1.75;0.90;;;17.70;57.60;;;;;;5108748;27;45334;-67
2023/05/12 07:15:10;;;;;;;1.20;1.10;;;17.80;57.60;;;;;;5108804;27;45362;-67
2023/05/12 07:17:37;;;;;;;1.00;1.00;;;17.80;57.60;;;;;;5109174;27;45089;-67
2023/05/12 07:20:04;;;;;;;0.95;0.95;;;17.80;57.60;;;;;;5108418;27;46718;-67
2023/05/12 07:22:32;;;;;;;1.23;1.00;;;17.80;57.60;;;;;;5108684;27;45355;-67
2023/05/12 07:24:58;;;;;;;0.90;0.90;;;17.80;57.40;;;;;;5108606;27;45379;-67
2023/05/12 07:27:27;;;;;;;0.98;0.90;;;17.80;57.50;;;;;;5108910;27;45434;-67
2023/05/12 07:29:53;;;;;;;1.60;1.15;;;17.80;57.40;;;;;;5108432;27;45216;-67
2023/05/12 07:32:20;;;;;;;0.80;0.80;;;17.80;57.40;;;;;;5108572;27;45396;-67
2023/05/12 07:34:47;;;;;;;1.10;1.00;;;17.90;57.50;;;;;;5108517;27;45362;-67
2023/05/12 07:37:14;;;;;;;1.00;1.00;;;17.90;57.50;;;;;;5108649;27;45345;-67
2023/05/12 07:39:41;;;;;;;1.10;1.10;;;17.90;57.40;;;;;;5108372;27;46427;-67
2023/05/12 07:42:08;;;;;;;1.17;1.08;;;17.90;57.40;;;;;;5108266;27;45390;-67
2023/05/12 07:44:36;;;;;;;1.27;0.90;;;17.90;57.40;;;;;;5108458;27;45264;-68
2023/05/12 07:47:04;;;;;;;1.67;1.30;;;17.90;58.10;;;;;;5108518;27;45334;-67
2023/05/12 07:49:31;;;;;;;1.17;1.08;;;17.90;57.50;;;;;;5108509;27;47589;-67
2023/05/12 07:51:57;;;;;;;1.05;1.02;;;17.90;57.60;;;;;;5108220;27;45248;-67
2023/05/12 07:54:24;;;;;;;1.42;1.10;;;17.90;57.50;;;;;;5108338;27;45209;-68
2023/05/12 07:56:51;;;;;;;1.10;1.00;;;18.00;57.50;;;;;;5108278;27;45383;-67
2023/05/12 07:59:18;;;;;;;0.90;0.90;;;18.00;57.50;;;;;;5107813;27;46704;-67
2023/05/12 08:01:46;;;;;;;1.00;1.00;;;18.00;57.40;;;;;;5107995;27;45374;-67
2023/05/12 08:04:13;;;;;;;0.90;0.90;;;18.00;57.40;;;;;;5108127;27;45136;-67
2023/05/12 08:06:40;;;;;;;1.02;0.98;;;18.00;57.40;;;;;;5108164;27;45422;-67
2023/05/12 08:09:07;;;;;;;1.00;1.00;;;18.00;57.40;;;;;;5108012;27;45383;-67
2023/05/12 08:11:33;;;;;;;1.85;1.00;;;18.10;57.40;;;;;;5107936;27;45650;-68
2023/05/12 08:14:00;;;;;;;1.20;1.10;;;18.10;57.40;;;;;;5107946;27;45320;-67
2023/05/12 08:16:27;;;;;;;1.13;1.10;;;18.10;57.40;;;;;;5107934;27;45508;-67
2023/05/12 08:18:55;;;;;;;1.00;1.00;;;18.20;57.40;;;;;;5107313;27;48582;-67
2023/05/12 08:21:22;;;;;;;0.90;0.90;;;18.20;57.40;;;;;;5107715;27;45382;-67
2023/05/12 08:23:49;;;;;;;1.10;1.00;;;18.20;57.40;;;;;;5107705;27;45378;-68
2023/05/12 08:26:16;;;;;;;1.15;1.05;;;18.20;57.40;;;;;;5107719;27;45414;-67
2023/05/12 08:28:43;;;;;;;1.40;1.30;;;18.20;57.40;;;;;;5107634;27;47632;-68
2023/05/12 08:31:10;;;;;;;1.10;1.00;;;18.20;57.50;;;;;;5107435;27;45279;-67
2023/05/12 08:33:36;;;;;;;1.30;1.20;;;18.20;57.40;;;;;;5107739;27;45404;-67
2023/05/12 08:36:05;;;;;;;1.00;1.00;;;18.30;57.50;;;;;;5107516;27;45511;-67
2023/05/12 08:38:32;;;;;;;1.83;1.13;;;18.30;57.50;;;;;;5107356;27;47322;-67
2023/05/12 08:41:05;;;;;;;1.27;1.10;;;18.30;57.40;;;;;;5107403;27;45273;-67
2023/05/12 08:43:36;;;;;;;0.90;0.90;;;18.30;57.40;;;;;;5107431;27;45244;-67
2023/05/12 08:46:03;;;;;;;1.13;1.02;;;18.30;57.40;;;;;;5107497;27;45319;-67
2023/05/12 08:48:29;;;;;;;1.25;1.20;;;18.40;57.40;;;;;;5107084;27;46338;-67
2023/05/12 08:50:56;;;;;;;1.38;1.20;;;18.40;57.40;;;;;;5107295;27;45315;-67
2023/05/12 08:53:24;;;;;;;1.10;1.10;;;18.40;57.40;;;;;;5107430;27;45299;-67
2023/05/12 08:55:51;;;;;;;0.93;0.93;;;18.40;57.40;;;;;;5107490;27;45379;-67
2023/05/12 08:58:18;;;;;;;1.40;1.30;;;18.40;57.40;;;;;;5107119;27;47595;-67
2023/05/12 09:00:45;;;;;;;1.10;1.10;;;18.40;57.40;;;;;;5107052;27;45483;-68
2023/05/12 09:03:13;;;;;;;1.30;1.20;;;18.50;57.40;;;;;;5107073;27;45265;-67
2023/05/12 09:05:40;;;;;;;1.40;1.30;;;18.50;57.40;;;;;;5107382;27;45281;-67
2023/05/12 09:08:07;;;;;;;1.10;1.08;;;18.50;57.40;;;;;;5106839;27;46321;-67
2023/05/12 09:10:35;;;;;;;1.45;1.35;;;18.50;57.50;;;;;;5106912;27;45456;-67
2023/05/12 09:13:04;;;;;;;1.30;1.20;;;18.50;57.50;;;;;;5107134;27;45223;-67
2023/05/12 09:15:34;;;;;;;1.20;1.20;;;18.50;57.50;;;;;;5107047;27;45447;-68
2023/05/12 09:18:01;;;;;;;1.25;1.20;;;18.50;57.50;;;;;;5106664;27;45320;-67
2023/05/12 09:20:28;;;;;;;1.30;1.20;;;18.50;57.50;;;;;;5106999;27;45332;-67
2023/05/12 09:22:56;;;;;;;1.58;1.45;;;18.50;57.50;;;;;;5106933;27;45280;-67
2023/05/12 09:25:23;;;;;;;1.40;1.30;;;18.60;57.50;;;;;;5106871;27;45502;-67
2023/05/12 09:27:55;;;;;;;1.42;1.33;;;18.60;57.50;;;;;;5106561;27;47328;-68
2023/05/12 09:30:29;;;;;;;2.38;1.50;;;18.60;57.50;;;;;;5105595;27;45320;-67
2023/05/12 09:33:05;;;;;;;1.77;1.33;;;18.60;57.50;;;;;;5106673;27;45249;-68
2023/05/12 09:35:32;;;;;;;1.45;1.30;;;18.60;57.60;;;;;;5106828;27;45476;-67
2023/05/12 09:38:06;;;;;;;1.60;1.50;;;18.60;57.60;;;;;;5106422;27;47338;-67
2023/05/12 09:40:33;;;;;;;1.42;1.33;;;18.60;57.50;;;;;;5106440;27;45492;-68
2023/05/12 09:43:01;;;;;;;1.60;1.50;;;18.60;57.50;;;;;;5106794;27;45496;-67
2023/05/12 09:45:28;;;;;;;1.50;1.38;;;18.70;57.90;;;;;;5106650;27;45314;-68
2023/05/12 09:47:55;;;;;;;1.55;1.45;;;18.70;58.20;;;;;;5106050;27;47601;-67
2023/05/12 09:50:22;;;;;;;1.60;1.50;;;18.70;57.60;;;;;;5106593;27;45289;-67
2023/05/12 09:52:51;;;;;;;1.30;1.20;;;18.70;57.50;;;;;;5106412;27;45292;-68
2023/05/12 09:55:18;;;;;;;1.98;1.30;;;18.70;57.50;;;;;;5106437;27;45334;-67
2023/05/12 09:57:45;;;;;;;1.60;1.50;;;18.70;57.50;;;;;;5106119;27;45286;-68
2023/05/12 10:00:16;;;;;;;1.30;1.20;;;18.70;57.50;;;;;;5106195;27;45202;-67
2023/05/12 10:02:43;;;;;;;1.85;1.48;;;18.80;57.50;;;;;;5106109;27;45252;-68
2023/05/12 10:05:13;;;;;;;1.13;1.05;;;18.80;57.40;;;;;;5106237;27;45286;-68
2023/05/12 10:07:40;;;;;;;1.40;1.30;;;18.80;57.40;;;;;;5105971;27;46457;-68
2023/05/12 10:10:08;;;;;;;1.70;1.60;;;18.80;57.30;;;;;;5106160;27;45252;-67
2023/05/12 10:12:35;;;;;;;1.30;1.27;;;18.90;57.30;;;;;;5106224;27;45259;-67
2023/05/12 10:15:03;;;;;;;1.63;1.15;;;18.90;57.30;;;;;;5106157;27;45486;-68
2023/05/12 10:17:31;;;;;;;1.70;1.60;;;18.90;57.30;;;;;;5105905;27;47572;-68
2023/05/12 10:19:58;;;;;;;1.40;1.30;;;18.90;57.30;;;;;;5106061;27;45342;-68
2023/05/12 10:22:25;;;;;;;1.50;1.40;;;18.90;57.30;;;;;;5106258;27;45263;-68
2023/05/12 10:24:52;;;;;;;1.52;1.42;;;18.90;57.30;;;;;;5106069;27;45370;-68
2023/05/12 10:27:19;;;;;;;1.48;1.38;;;18.90;57.30;;;;;;5106159;27;45462;-68
2023/05/12 10:29:46;;;;;;;1.40;1.30;;;18.90;57.20;;;;;;5105928;27;45436;-67
2023/05/12 10:32:13;;;;;;;1.98;1.35;;;18.90;57.30;;;;;;5105888;27;45329;-67
2023/05/12 10:34:42;;;;;;;1.60;1.50;;;19.00;58.00;;;;;;5106226;27;45305;-68
2023/05/12 10:37:10;;;;;;;1.60;1.50;;;19.00;57.40;;;;;;5105775;27;45480;-68
2023/05/12 10:39:37;;;;;;;1.58;1.45;;;19.00;57.40;;;;;;5105790;27;45303;-68
2023/05/12 10:42:06;;;;;;;2.60;1.70;;;19.00;57.40;;;;;;5107121;27;45334;-67
2023/05/12 10:44:32;;;;;;;1.35;1.33;;;19.10;57.30;;;;;;5109634;27;45267;-67
2023/05/12 10:46:59;;;;;;;1.40;1.30;;;19.10;57.20;;;;;;5108940;27;46686;-68
2023/05/12 10:49:32;;;;;;;1.50;1.40;;;19.10;57.10;;;;;;5109222;27;45405;-68
2023/05/12 10:52:00;;;;;;;1.25;1.25;;;19.20;57.10;;;;;;5109417;27;45316;-67
2023/05/12 10:54:27;;;;;;;1.30;1.30;;;19.20;57.10;;;;;;5109500;27;45244;-67
2023/05/12 10:56:58;;;;;;;1.55;1.30;;;19.20;57.10;;;;;;5109104;27;45295;-68
2023/05/12 10:59:25;;;;;;;1.60;1.50;;;19.20;57.20;;;;;;5109195;27;45434;-68
2023/05/12 11:01:59;;;;;;;1.50;1.40;;;19.20;57.20;;;;;;5109239;27;45373;-68
2023/05/12 11:04:36;;;;;;;1.52;1.42;;;19.20;57.20;;;;;;5109345;27;45444;-67
2023/05/12 11:07:05;;;;;;;1.70;1.60;;;19.30;57.20;;;;;;5108985;27;46475;-67
2023/05/12 11:09:31;;;;;;;1.67;1.58;;;19.30;57.00;;;;;;5108943;27;45247;-67
2023/05/12 11:11:58;;;;;;;1.40;1.30;;;19.30;56.90;;;;;;5109131;27;45445;-67
2023/05/12 11:14:25;;;;;;;1.33;1.33;;;19.40;57.40;;;;;;5109194;27;45454;-68
2023/05/12 11:16:52;;;;;;;1.35;1.30;;;19.40;56.70;;;;;;5108670;27;46479;-67
2023/05/12 11:19:19;;;;;;;1.45;1.35;;;19.50;56.70;;;;;;5108779;27;45203;-67
2023/05/12 11:21:45;;;;;;;1.65;1.55;;;19.50;56.70;;;;;;5109063;27;45263;-67
2023/05/12 11:24:15;;;;;;;1.58;1.48;;;19.50;56.60;;;;;;5108883;27;45375;-68
2023/05/12 11:26:42;;;;;;;1.73;1.63;;;19.60;56.70;;;;;;5108471;27;46404;-68
2023/05/12 11:29:09;;;;;;;1.25;1.17;;;19.60;56.60;;;;;;5108622;27;45318;-68
2023/05/12 11:31:35;;;;;;;1.52;1.42;;;19.60;57.20;;;;;;5106240;27;45225;-67
2023/05/12 11:34:03;;;;;;;1.70;1.60;;;19.60;56.70;;;;;;5108966;27;45639;-67
2023/05/12 11:36:35;;;;;;;2.13;1.92;;;19.60;56.70;;;;;;5108636;27;48020;-67
2023/05/12 11:39:02;;;;;;;1.58;1.48;;;19.60;56.70;;;;;;5108652;27;45202;-67
2023/05/12 11:41:30;;;;;;;1.55;1.45;;;19.60;56.70;;;;;;5108681;27;45327;-68
2023/05/12 11:43:57;;;;;;;1.77;1.67;;;19.70;56.70;;;;;;5108599;27;45473;-67
2023/05/12 11:46:25;;;;;;;1.67;1.58;;;19.70;56.60;;;;;;5108252;27;46415;-68
2023/05/12 11:48:56;;;;;;;1.45;1.35;;;19.70;56.70;;;;;;5108192;27;45260;-67
2023/05/12 11:51:22;;;;;;;1.60;1.50;;;19.70;56.60;;;;;;5108581;27;45328;-68
2023/05/12 11:53:50;;;;;;;1.48;1.40;;;19.80;56.50;;;;;;5107870;27;45621;-67
2023/05/12 11:56:20;;;;;;;2.00;1.30;;;19.90;56.40;;;;;;5108138;27;45806;-67
2023/05/12 11:58:54;;;;;;;1.42;1.40;;;19.90;56.30;;;;;;5108188;27;45590;-67
2023/05/12 12:01:21;;;;;;;1.50;1.40;;;20.00;56.10;;;;;;5108453;27;45321;-68
2023/05/12 12:03:48;;;;;;;1.50;1.40;;;20.10;55.80;;;;;;5108275;27;45382;-67
2023/05/12 12:06:15;;;;;;;1.55;1.45;;;20.20;55.80;;;;;;5108038;27;45229;-68
2023/05/12 12:08:50;;;;;;;1.80;1.70;;;20.20;55.70;;;;;;5108213;27;45252;-67
2023/05/12 12:11:18;;;;;;;1.55;1.45;;;20.20;55.60;;;;;;5108129;27;45297;-68
2023/05/12 12:13:48;;;;;;;1.50;1.40;;;20.20;55.60;;;;;;5108167;27;45564;-68
2023/05/12 12:16:16;;;;;;;1.65;1.55;;;20.20;55.80;;;;;;5105089;27;46210;-68
2023/05/12 12:18:43;;;;;;;1.50;1.35;;;20.20;55.90;;;;;;5107927;27;45401;-68
2023/05/12 12:21:10;;;;;;;1.73;1.60;;;20.20;55.80;;;;;;5108094;27;45329;-67
2023/05/12 12:23:37;;;;;;;1.60;1.50;;;20.20;55.90;;;;;;5107952;27;45545;-68
2023/05/12 12:26:04;;;;;;;1.63;1.50;;;20.20;55.90;;;;;;5107521;27;46756;-68
2023/05/12 12:28:31;;;;;;;1.50;1.40;;;20.20;55.90;;;;;;5107773;27;45313;-67
2023/05/12 12:30:58;;;;;;;1.80;1.50;;;20.20;56.00;;;;;;5107696;27;45465;-68
2023/05/12 12:33:26;;;;;;;1.55;1.45;;;20.20;56.10;;;;;;5107924;27;45338;-68
2023/05/12 12:35:56;;;;;;;1.55;1.45;;;20.10;56.20;;;;;;5107493;27;46658;-68
2023/05/12 12:38:23;;;;;;;1.58;1.48;;;20.20;56.30;;;;;;5107551;27;45279;-68
2023/05/12 12:40:50;;;;;;;1.60;1.50;;;20.20;56.30;;;;;;5103092;27;45613;-67
2023/05/12 12:43:17;;;;;;;1.75;1.52;;;20.10;56.40;;;;;;5098836;27;45373;-68
2023/05/12 12:45:43;;;;;;;1.40;1.40;;;20.10;56.40;;;;;;5104211;27;46682;-68
2023/05/12 12:48:10;;;;;;;1.58;1.48;;;20.20;56.60;;;;;;5100383;27;45289;-68